Nyk Deneb — 3EOF8 — position and weather

sailwx.info

Track history (hours):
 
Tides and Currents Weather Stations Pressure Air Temp Water Temp Dewpoint Dewpoint Depression Visibility Wind Speed Wind Dir Waves Ship Positions

Nyk Deneb

Last reported at 2014-Nov-21 09:19 UTC. Time now 2014-Nov-21 10:29 UTC.
Position N 32°07' W 081°08'.

Length 294 m; draft 10.4 m.

Type: Ship (hazmat cat A). MMSI: 355717000.

Date/timePositionNaut miles runAvg speedWind from/ knotsBaromVisibWave heightAir tempDewpointWater temp
2014-Nov-21 09:19N 32°07' W 081°08'0 0.0
2014-Nov-21 07:28N 32°07' W 081°08'0 0.0
2014-Nov-21 06:31N 32°07' W 081°08'0 0.0
2014-Nov-21 05:30N 32°07' W 081°08'0 0.0
2014-Nov-21 04:33N 32°07' W 081°08'0 0.0
2014-Nov-21 03:33N 32°07' W 081°08'1 1.1
2014-Nov-21 02:33N 32°07' W 081°07'5 5.1
2014-Nov-21 01:32N 32°06' W 081°01'  
2014-Nov-17 12:32N 39°34' W 073°53'1212.7
2014-Nov-17 11:33N 39°46' W 073°52'1312.5
2014-Nov-17 10:33N 39°59' W 073°52'2510.7
2014-Nov-17 08:15N 40°23' W 073°49'6 8.7
2014-Nov-17 07:33N 40°29' W 073°53'9 9.5
2014-Nov-17 06:33N 40°35' W 074°02'6 5.8
2014-Nov-17 05:33N 40°39' W 074°08'2 2.3
2014-Nov-17 04:33N 40°39' W 074°11'0 0.0
2014-Nov-17 03:26N 40°39' W 074°11'0 0.0
2014-Nov-17 02:33N 40°39' W 074°11'0 0.0
2014-Nov-17 01:33N 40°39' W 074°11'0 0.0
2014-Nov-17 00:33N 40°39' W 074°11'0 0.0
2014-Nov-16 23:32N 40°39' W 074°11'0 0.0
2014-Nov-16 22:33N 40°39' W 074°11'0 0.0
2014-Nov-16 21:26N 40°39' W 074°11'0 0.0
2014-Nov-16 20:30N 40°39' W 074°11'0 0.0
2014-Nov-16 19:33N 40°39' W 074°11'0 0.0
2014-Nov-16 18:33N 40°39' W 074°11'0 0.0
2014-Nov-16 17:33N 40°39' W 074°11'0 0.0
2014-Nov-16 16:32N 40°39' W 074°11'0 0.0
2014-Nov-16 15:32N 40°39' W 074°11'0 0.0
2014-Nov-16 14:26N 40°39' W 074°11'0 0.0
2014-Nov-16 13:33N 40°39' W 074°11'0 0.0
2014-Nov-16 12:33N 40°39' W 074°11'0 0.0
2014-Nov-16 11:30N 40°39' W 074°11'1 1.2
2014-Nov-16 10:33N 40°39' W 074°10'6 5.7
2014-Nov-16 09:33N 40°37' W 074°03'1111.4
2014-Nov-16 08:33N 40°28' W 073°52'6 6.0
2014-Nov-16 07:33N 40°24' W 073°47'8 8.1
2014-Nov-16 06:33N 40°16' W 073°46'10 9.6
2014-Nov-16 05:33N 40°06' W 073°44'1313.4
2014-Nov-16 04:33N 39°53' W 073°42'1615.8
2014-Nov-16 03:34N 39°37' W 073°41'  
Track history (hours):
 
Tides and Currents Weather Stations Pressure Air Temp Water Temp Dewpoint Dewpoint Depression Visibility Wind Speed Wind Dir Waves Ship Positions

Nyk Deneb

Last reported at 2014-Nov-21 09:19 UTC. Time now 2014-Nov-21 10:29 UTC.
Position N 32°07' W 081°08'.

Length 294 m; draft 10.4 m.

Type: Ship (hazmat cat A). MMSI: 355717000.

Date/timePositionNaut miles runAvg speedWind from/ knotsBaromVisibWave heightAir tempDewpointWater temp
2014-Nov-21 09:19N 32°07' W 081°08'0 0.0
2014-Nov-21 07:28N 32°07' W 081°08'0 0.0
2014-Nov-21 06:31N 32°07' W 081°08'0 0.0
2014-Nov-21 05:30N 32°07' W 081°08'0 0.0
2014-Nov-21 04:33N 32°07' W 081°08'0 0.0
2014-Nov-21 03:33N 32°07' W 081°08'1 1.1
2014-Nov-21 02:33N 32°07' W 081°07'5 5.1
2014-Nov-21 01:32N 32°06' W 081°01'  
2014-Nov-17 12:32N 39°34' W 073°53'1212.7
2014-Nov-17 11:33N 39°46' W 073°52'1312.5
2014-Nov-17 10:33N 39°59' W 073°52'2510.7
2014-Nov-17 08:15N 40°23' W 073°49'6 8.7
2014-Nov-17 07:33N 40°29' W 073°53'9 9.5
2014-Nov-17 06:33N 40°35' W 074°02'6 5.8
2014-Nov-17 05:33N 40°39' W 074°08'2 2.3
2014-Nov-17 04:33N 40°39' W 074°11'0 0.0
2014-Nov-17 03:26N 40°39' W 074°11'0 0.0
2014-Nov-17 02:33N 40°39' W 074°11'0 0.0
2014-Nov-17 01:33N 40°39' W 074°11'0 0.0
2014-Nov-17 00:33N 40°39' W 074°11'0 0.0
2014-Nov-16 23:32N 40°39' W 074°11'0 0.0
2014-Nov-16 22:33N 40°39' W 074°11'0 0.0
2014-Nov-16 21:26N 40°39' W 074°11'0 0.0
2014-Nov-16 20:30N 40°39' W 074°11'0 0.0
2014-Nov-16 19:33N 40°39' W 074°11'0 0.0
2014-Nov-16 18:33N 40°39' W 074°11'0 0.0
2014-Nov-16 17:33N 40°39' W 074°11'0 0.0
2014-Nov-16 16:32N 40°39' W 074°11'0 0.0
2014-Nov-16 15:32N 40°39' W 074°11'0 0.0
2014-Nov-16 14:26N 40°39' W 074°11'0 0.0
2014-Nov-16 13:33N 40°39' W 074°11'0 0.0
2014-Nov-16 12:33N 40°39' W 074°11'0 0.0
2014-Nov-16 11:30N 40°39' W 074°11'1 1.2
2014-Nov-16 10:33N 40°39' W 074°10'6 5.7
2014-Nov-16 09:33N 40°37' W 074°03'1111.4
2014-Nov-16 08:33N 40°28' W 073°52'6 6.0
2014-Nov-16 07:33N 40°24' W 073°47'8 8.1
2014-Nov-16 06:33N 40°16' W 073°46'10 9.6
2014-Nov-16 05:33N 40°06' W 073°44'1313.4
2014-Nov-16 04:33N 39°53' W 073°42'1615.8
2014-Nov-16 03:34N 39°37' W 073°41'  

Dump ship's entire track history